Time;durP1;ratioP1;P1;durP2;ratioP2;P2;SDS_P1;SDS_P2;PMS_P1;PMS_P2;Temp;Humidity;BMP_temperature;BMP_pressure;BME280_temperature;BME280_humidity;BME280_pressure;Samples;Min_cycle;Max_cycle;Signal;HPM_P1;HPM_P2
2022/01/18 00:00:20;;;;;;;16.25;9.63;;;3.10;99.90;;;;;;459844;258;29020;-68
2022/01/18 00:02:21;;;;;;;17.52;9.93;;;3.10;99.90;;;;;;459876;258;27507;-68
2022/01/18 00:04:22;;;;;;;14.87;8.55;;;3.10;99.90;;;;;;459860;258;27540;-68
2022/01/18 00:06:23;;;;;;;17.10;9.10;;;3.10;99.90;;;;;;459876;258;27563;-68
2022/01/18 00:08:25;;;;;;;17.00;9.65;;;3.10;99.90;;;;;;459859;258;27570;-68
2022/01/18 00:10:29;;;;;;;18.15;8.90;;;3.10;99.90;;;;;;459885;258;27536;-68
2022/01/18 00:12:53;;;;;;;17.40;9.68;;;3.10;99.90;;;;;;459852;258;27584;-68
2022/01/18 00:14:44;;;;;;;16.60;10.15;;;3.20;99.90;;;;;;459946;258;27507;-69
2022/01/18 00:17:16;;;;;;;17.58;10.00;;;3.20;99.90;;;;;;459859;258;27983;-69
2022/01/18 00:18:48;;;;;;;17.02;8.80;;;3.20;99.90;;;;;;458391;258;27977;-68
2022/01/18 00:22:51;;;;;;;16.02;9.95;;;3.10;99.90;;;;;;459889;258;27503;-68
2022/01/18 00:24:53;;;;;;;19.42;10.23;;;3.10;99.90;;;;;;459885;258;27460;-68
2022/01/18 00:26:54;;;;;;;16.65;9.90;;;3.10;99.90;;;;;;459885;258;27490;-68
2022/01/18 00:28:58;;;;;;;18.73;10.88;;;3.10;99.90;;;;;;459902;258;27566;-68
2022/01/18 00:33:22;;;;;;;18.48;9.27;;;3.20;99.90;;;;;;459878;258;27578;-68
2022/01/18 00:35:17;;;;;;;18.40;10.32;;;3.20;99.90;;;;;;459901;258;27610;-69
2022/01/18 00:37:40;;;;;;;18.75;9.50;;;3.20;99.90;;;;;;459882;258;27487;-68
2022/01/18 00:39:41;;;;;;;17.08;9.18;;;3.20;99.90;;;;;;459828;258;27558;-68
2022/01/18 00:41:43;;;;;;;16.33;9.43;;;3.20;99.90;;;;;;459892;258;27448;-68
2022/01/18 00:43:44;;;;;;;15.55;9.70;;;3.20;99.90;;;;;;459882;258;27563;-68
2022/01/18 00:45:45;;;;;;;17.33;8.95;;;3.20;99.90;;;;;;459869;258;27558;-68
2022/01/18 00:47:48;;;;;;;19.52;10.40;;;3.20;99.90;;;;;;459864;258;27593;-68
2022/01/18 00:49:49;;;;;;;17.70;10.20;;;3.20;99.90;;;;;;459905;258;27562;-68
2022/01/18 00:51:55;;;;;;;17.65;10.07;;;3.20;99.90;;;;;;459907;258;28093;-68
2022/01/18 00:53:50;;;;;;;19.00;10.35;;;3.10;99.90;;;;;;459881;258;29172;-68
2022/01/18 00:56:40;;;;;;;15.27;9.10;;;3.20;99.90;;;;;;459883;258;27451;-68
2022/01/18 00:57:53;;;;;;;15.40;8.63;;;3.20;99.90;;;;;;456642;258;27502;-68
2022/01/18 00:59:54;;;;;;;15.45;8.90;;;3.20;99.90;;;;;;459878;258;27494;-68
2022/01/18 01:01:55;;;;;;;15.63;8.90;;;3.20;99.90;;;;;;459862;258;27452;-69
2022/01/18 01:04:00;;;;;;;16.75;9.80;;;3.10;99.90;;;;;;459852;258;27526;-68
2022/01/18 01:05:58;;;;;;;18.20;10.02;;;3.20;99.90;;;;;;459846;258;27506;-68
2022/01/18 01:07:59;;;;;;;18.02;10.48;;;3.10;99.90;;;;;;459881;258;27475;-68
2022/01/18 01:10:00;;;;;;;18.08;9.73;;;3.20;99.90;;;;;;459875;258;28054;-68
2022/01/18 01:12:01;;;;;;;18.37;10.13;;;3.20;99.90;;;;;;459847;258;27909;-69
2022/01/18 01:14:03;;;;;;;17.20;9.15;;;3.10;99.90;;;;;;459823;258;27533;-68
2022/01/18 01:36:40;;;;;;;17.05;9.85;;;3.20;99.90;;;;;;459855;258;28160;-68
2022/01/18 01:42:59;;;;;;;22.27;10.65;;;3.20;99.90;;;;;;454460;258;27601;-68
2022/01/18 01:44:56;;;;;;;21.45;10.30;;;3.30;99.90;;;;;;459870;258;27495;-68
2022/01/18 01:46:56;;;;;;;19.58;10.07;;;3.20;99.90;;;;;;459857;258;27464;-68
2022/01/18 01:48:58;;;;;;;20.30;9.80;;;3.30;99.90;;;;;;459857;258;27984;-68
2022/01/18 01:51:03;;;;;;;18.05;8.93;;;3.20;99.90;;;;;;459834;258;27978;-68
2022/01/18 01:53:03;;;;;;;17.80;10.35;;;3.20;99.90;;;;;;459852;258;27567;-68
2022/01/18 01:55:04;;;;;;;20.23;10.40;;;3.20;99.90;;;;;;459865;258;27459;-69
2022/01/18 01:57:05;;;;;;;18.25;10.30;;;3.20;99.90;;;;;;459858;258;27574;-68
2022/01/18 01:59:06;;;;;;;18.37;9.52;;;3.20;99.90;;;;;;459858;258;27472;-69
2022/01/18 02:01:08;;;;;;;14.77;8.48;;;3.20;99.90;;;;;;459851;258;27598;-68
2022/01/18 02:03:09;;;;;;;18.33;9.40;;;3.20;99.90;;;;;;460337;258;27923;-68
2022/01/18 02:05:10;;;;;;;20.65;10.63;;;3.20;99.90;;;;;;459860;258;27938;-68
2022/01/18 02:07:11;;;;;;;19.02;9.85;;;3.20;99.90;;;;;;459850;258;29080;-68
2022/01/18 02:09:13;;;;;;;19.02;10.85;;;3.20;99.90;;;;;;459849;258;27459;-68
2022/01/18 02:11:14;;;;;;;18.23;9.27;;;3.20;99.90;;;;;;459886;258;27468;-68
2022/01/18 02:13:15;;;;;;;20.52;9.55;;;3.20;99.90;;;;;;459873;258;27574;-68
2022/01/18 02:15:19;;;;;;;17.58;9.05;;;3.20;99.90;;;;;;459870;258;27468;-68
2022/01/18 02:21:58;;;;;;;17.23;9.05;;;3.20;99.90;;;;;;460314;257;27490;-68
2022/01/18 02:23:59;;;;;;;16.80;9.07;;;3.10;99.90;;;;;;459844;258;27981;-68
2022/01/18 02:26:00;;;;;;;19.23;9.93;;;3.20;99.90;;;;;;459840;258;28094;-68
2022/01/18 02:28:01;;;;;;;18.17;9.07;;;3.20;99.90;;;;;;459876;258;27977;-68
2022/01/18 02:30:03;;;;;;;18.73;9.07;;;3.10;99.90;;;;;;459868;258;27466;-68
2022/01/18 02:32:04;;;;;;;18.00;9.35;;;3.20;99.90;;;;;;459837;258;27609;-68
2022/01/18 02:34:05;;;;;;;17.33;9.73;;;3.20;99.90;;;;;;459847;258;27587;-68
2022/01/18 02:36:06;;;;;;;20.27;10.27;;;3.20;99.90;;;;;;459833;258;27496;-69
2022/01/18 02:38:08;;;;;;;18.92;9.30;;;3.20;99.90;;;;;;459874;258;27498;-68
2022/01/18 02:40:09;;;;;;;17.73;9.88;;;3.20;99.90;;;;;;459857;258;27539;-68
2022/01/18 02:42:15;;;;;;;19.33;10.20;;;3.20;99.90;;;;;;459834;258;27590;-68
2022/01/18 02:44:12;;;;;;;17.45;9.43;;;3.20;99.90;;;;;;459697;258;27980;-68
2022/01/18 02:46:13;;;;;;;19.12;9.18;;;3.20;99.90;;;;;;459867;258;27934;-69
2022/01/18 02:48:14;;;;;;;15.20;8.40;;;3.10;99.90;;;;;;459854;258;27506;-69
2022/01/18 02:50:15;;;;;;;16.62;9.38;;;3.20;99.90;;;;;;459840;258;27468;-68
2022/01/18 02:52:17;;;;;;;19.58;10.45;;;3.20;99.90;;;;;;459865;258;27482;-69
2022/01/18 02:54:18;;;;;;;19.83;10.38;;;3.10;99.90;;;;;;459866;258;27503;-68
2022/01/18 02:56:19;;;;;;;22.45;9.88;;;3.10;99.90;;;;;;459862;258;27513;-68
2022/01/18 02:58:28;;;;;;;20.40;10.15;;;3.10;99.90;;;;;;459840;258;27507;-68
2022/01/18 03:00:31;;;;;;;16.65;8.88;;;3.10;99.90;;;;;;459609;258;28229;-68
2022/01/18 03:04:48;;;;;;;18.30;9.50;;;3.10;99.90;;;;;;459711;258;28146;-69
2022/01/18 03:06:49;;;;;;;15.73;8.80;;;3.10;99.90;;;;;;460161;258;28118;-68
2022/01/18 03:08:51;;;;;;;17.98;8.52;;;3.10;99.90;;;;;;459689;258;27495;-68
2022/01/18 03:10:52;;;;;;;18.50;9.35;;;3.20;99.90;;;;;;459882;258;27498;-68
2022/01/18 03:12:53;;;;;;;20.95;9.90;;;3.20;99.90;;;;;;459864;258;27471;-68
2022/01/18 03:14:55;;;;;;;20.70;10.52;;;3.20;99.90;;;;;;459839;258;27579;-68
2022/01/18 03:16:56;;;;;;;22.70;9.95;;;3.20;99.90;;;;;;459856;258;27447;-68
2022/01/18 03:18:57;;;;;;;17.10;9.45;;;3.20;99.90;;;;;;459855;258;27587;-68
2022/01/18 03:20:58;;;;;;;20.40;9.90;;;3.20;99.90;;;;;;459848;258;27502;-68
2022/01/18 03:23:00;;;;;;;22.55;9.82;;;3.20;99.90;;;;;;459872;258;28058;-68
2022/01/18 03:25:13;;;;;;;16.85;8.27;;;3.20;99.90;;;;;;459853;254;27990;-68
2022/01/18 03:29:21;;;;;;;18.73;9.05;;;3.20;99.90;;;;;;459861;258;27929;-68
2022/01/18 03:31:23;;;;;;;16.42;8.27;;;3.20;99.90;;;;;;460328;258;28073;-68
2022/01/18 03:33:24;;;;;;;19.17;9.32;;;3.20;99.90;;;;;;459883;258;27566;-68
2022/01/18 03:35:25;;;;;;;18.92;10.00;;;3.20;99.90;;;;;;459868;258;27501;-68
2022/01/18 03:37:26;;;;;;;17.70;8.80;;;3.30;99.90;;;;;;459898;258;27598;-68
2022/01/18 03:39:28;;;;;;;18.83;9.10;;;3.30;99.90;;;;;;459901;258;27586;-68
2022/01/18 03:41:29;;;;;;;18.52;9.15;;;3.20;99.90;;;;;;459886;258;27562;-68
2022/01/18 03:43:30;;;;;;;15.95;8.98;;;3.20;99.90;;;;;;459872;258;28086;-68
2022/01/18 03:45:32;;;;;;;17.83;8.90;;;3.20;99.90;;;;;;459860;258;27575;-68
2022/01/18 03:47:33;;;;;;;20.00;8.80;;;3.20;99.90;;;;;;459886;258;28131;-68
2022/01/18 03:49:36;;;;;;;20.52;9.82;;;3.20;99.90;;;;;;459873;258;27915;-68
2022/01/18 03:51:35;;;;;;;16.92;7.80;;;3.10;99.90;;;;;;459870;258;27601;-68
2022/01/18 03:53:38;;;;;;;17.27;8.70;;;3.10;99.90;;;;;;459863;258;27503;-68
2022/01/18 03:55:38;;;;;;;17.33;8.18;;;3.20;99.90;;;;;;459871;258;27507;-68
2022/01/18 03:57:39;;;;;;;21.02;9.52;;;3.20;99.90;;;;;;459900;258;27594;-68
2022/01/18 03:59:40;;;;;;;15.90;8.68;;;3.20;99.90;;;;;;459890;258;27455;-68
2022/01/18 04:01:41;;;;;;;18.40;9.75;;;3.20;99.90;;;;;;459870;258;27557;-68
2022/01/18 04:03:43;;;;;;;21.25;8.68;;;3.20;99.90;;;;;;459864;258;27468;-68
2022/01/18 04:05:44;;;;;;;17.77;8.93;;;3.20;99.90;;;;;;459909;258;27550;-68
2022/01/18 04:07:45;;;;;;;16.70;7.95;;;3.20;99.90;;;;;;459920;258;27990;-69
2022/01/18 04:09:46;;;;;;;13.52;7.53;;;3.20;99.90;;;;;;459902;258;28007;-68
2022/01/18 04:11:48;;;;;;;15.40;7.90;;;3.20;99.90;;;;;;459897;258;27601;-68
2022/01/18 04:13:49;;;;;;;16.85;8.10;;;3.20;99.90;;;;;;459881;258;27566;-68
2022/01/18 04:15:50;;;;;;;16.23;7.53;;;3.20;99.90;;;;;;459888;258;27460;-68
2022/01/18 04:27:00;;;;;;;14.35;7.22;;;3.20;99.90;;;;;;459883;258;27629;-68
2022/01/18 04:28:59;;;;;;;16.23;7.70;;;3.20;99.90;;;;;;459885;258;27462;-68
2022/01/18 04:31:00;;;;;;;12.02;7.03;;;3.20;99.90;;;;;;459904;258;27502;-68
2022/01/18 04:33:01;;;;;;;17.37;8.15;;;3.20;99.90;;;;;;459865;258;27551;-68
2022/01/18 04:35:03;;;;;;;13.40;7.03;;;3.20;99.90;;;;;;459896;258;27536;-69
2022/01/18 04:37:04;;;;;;;14.68;7.65;;;3.20;99.90;;;;;;459892;258;27494;-68
2022/01/18 04:39:05;;;;;;;14.15;7.20;;;3.10;99.90;;;;;;459868;258;27467;-68
2022/01/18 04:41:10;;;;;;;11.02;6.72;;;3.10;99.90;;;;;;459848;258;27959;-68
2022/01/18 04:43:17;;;;;;;11.75;6.78;;;3.10;99.90;;;;;;459865;258;28063;-68
2022/01/18 04:49:33;;;;;;;12.93;6.95;;;3.10;99.90;;;;;;454460;258;27550;-68
2022/01/18 04:51:34;;;;;;;13.68;7.03;;;3.10;99.90;;;;;;459882;258;27584;-68
2022/01/18 04:53:36;;;;;;;16.60;8.23;;;3.00;99.90;;;;;;459851;258;27926;-68
2022/01/18 04:55:37;;;;;;;14.65;7.75;;;3.00;99.90;;;;;;459895;258;28031;-68
2022/01/18 04:57:53;;;;;;;13.48;7.12;;;3.00;99.90;;;;;;459879;258;27582;-68
2022/01/18 04:59:54;;;;;;;11.77;6.80;;;3.00;99.90;;;;;;459874;258;27575;-68
2022/01/18 05:01:56;;;;;;;12.68;7.30;;;3.00;99.90;;;;;;459857;258;27468;-68
2022/01/18 05:03:57;;;;;;;16.75;7.50;;;2.90;99.90;;;;;;459852;258;27574;-68
2022/01/18 05:06:00;;;;;;;12.60;6.80;;;3.00;99.90;;;;;;459902;258;27503;-68
2022/01/18 05:08:01;;;;;;;11.90;6.75;;;3.00;99.90;;;;;;459863;258;27962;-68
2022/01/18 05:10:01;;;;;;;15.80;7.80;;;3.00;99.90;;;;;;459865;258;28107;-68
2022/01/18 05:12:15;;;;;;;13.93;7.47;;;3.00;99.90;;;;;;459861;258;27488;-68
2022/01/18 05:23:00;;;;;;;14.50;8.70;;;3.10;99.90;;;;;;459845;258;27507;-68
2022/01/18 05:25:00;;;;;;;13.02;7.57;;;3.10;99.90;;;;;;459858;258;27498;-68
2022/01/18 05:27:00;;;;;;;14.65;7.53;;;3.10;99.90;;;;;;459869;258;27602;-68
2022/01/18 05:29:01;;;;;;;15.82;8.15;;;3.10;99.90;;;;;;459878;258;27990;-68
2022/01/18 05:31:02;;;;;;;16.73;8.13;;;3.10;99.90;;;;;;459877;258;28171;-68
2022/01/18 05:33:04;;;;;;;12.93;7.40;;;3.10;99.90;;;;;;459871;258;29039;-68
2022/01/18 05:35:05;;;;;;;13.43;8.18;;;3.10;99.90;;;;;;459883;258;27503;-68
2022/01/18 05:37:06;;;;;;;14.48;7.65;;;3.00;99.90;;;;;;459866;258;27463;-68
2022/01/18 05:39:09;;;;;;;14.15;6.95;;;3.00;99.90;;;;;;459867;258;27496;-68
2022/01/18 05:41:09;;;;;;;13.02;6.95;;;3.00;99.90;;;;;;459875;258;27582;-68
2022/01/18 05:43:10;;;;;;;14.43;8.05;;;2.90;99.90;;;;;;459851;258;27511;-68
2022/01/18 05:45:11;;;;;;;12.27;7.18;;;2.90;99.90;;;;;;459850;258;27587;-68
2022/01/18 05:47:12;;;;;;;12.10;6.95;;;2.90;99.90;;;;;;459853;258;27463;-68
2022/01/18 05:49:14;;;;;;;15.32;7.70;;;2.90;99.90;;;;;;459846;258;27924;-68
2022/01/18 05:51:15;;;;;;;16.83;8.00;;;3.00;99.90;;;;;;459862;258;29073;-68
2022/01/18 05:53:16;;;;;;;9.98;6.28;;;2.90;99.90;;;;;;459857;258;29107;-68
2022/01/18 05:55:17;;;;;;;16.90;8.30;;;2.90;99.90;;;;;;459850;258;27492;-68
2022/01/18 05:57:19;;;;;;;11.88;7.18;;;2.90;99.90;;;;;;459859;258;27608;-68
2022/01/18 05:59:24;;;;;;;13.90;7.30;;;3.00;99.90;;;;;;459871;258;27507;-68
2022/01/18 06:01:32;;;;;;;10.73;6.50;;;2.90;99.90;;;;;;459844;258;27500;-68
2022/01/18 06:03:33;;;;;;;14.25;7.20;;;3.00;99.90;;;;;;459854;258;27575;-68
2022/01/18 06:07:49;;;;;;;10.25;6.75;;;3.00;99.90;;;;;;459870;258;27460;-68
2022/01/18 06:09:50;;;;;;;13.45;7.57;;;3.00;99.90;;;;;;460336;258;27881;-68
2022/01/18 06:11:51;;;;;;;12.52;7.95;;;3.00;99.90;;;;;;459849;258;27539;-68
2022/01/18 06:13:52;;;;;;;14.10;8.32;;;3.00;99.90;;;;;;459884;258;27967;-68
2022/01/18 06:15:54;;;;;;;16.40;8.57;;;3.00;99.90;;;;;;459851;258;27994;-68
2022/01/18 06:17:55;;;;;;;12.82;7.60;;;3.10;99.90;;;;;;459870;258;28036;-68
2022/01/18 06:19:56;;;;;;;14.25;7.85;;;3.10;99.90;;;;;;459850;258;27523;-68
2022/01/18 06:21:57;;;;;;;13.02;7.20;;;3.10;99.90;;;;;;459886;258;27630;-68
2022/01/18 06:23:59;;;;;;;13.48;7.05;;;3.10;99.90;;;;;;459878;258;27567;-68
2022/01/18 06:26:02;;;;;;;13.05;7.10;;;3.20;99.90;;;;;;459868;258;27941;-68
2022/01/18 06:28:01;;;;;;;11.05;7.28;;;3.10;99.90;;;;;;459835;258;27597;-68
2022/01/18 06:30:02;;;;;;;11.32;6.87;;;3.10;99.90;;;;;;459815;258;27610;-68
2022/01/18 06:32:04;;;;;;;12.68;6.70;;;3.10;99.90;;;;;;459888;258;27503;-68
2022/01/18 06:34:06;;;;;;;11.20;6.72;;;3.10;99.90;;;;;;459882;258;27935;-68
2022/01/18 06:36:06;;;;;;;14.02;7.45;;;3.10;99.90;;;;;;459867;258;28038;-68
2022/01/18 06:38:08;;;;;;;11.35;7.30;;;3.00;99.90;;;;;;459856;258;27926;-68
2022/01/18 06:40:09;;;;;;;12.02;6.68;;;3.00;99.90;;;;;;459849;258;27562;-68
2022/01/18 06:42:14;;;;;;;12.52;7.30;;;3.00;99.90;;;;;;459867;258;27579;-68
2022/01/18 06:44:14;;;;;;;10.98;6.80;;;3.00;99.90;;;;;;459837;258;27507;-68
2022/01/18 06:46:15;;;;;;;11.27;7.18;;;3.00;99.90;;;;;;459851;258;27467;-68
2022/01/18 06:48:17;;;;;;;11.10;6.57;;;3.00;99.90;;;;;;459881;258;27503;-68
2022/01/18 06:50:18;;;;;;;11.05;7.10;;;3.00;99.90;;;;;;459867;258;27831;-69
2022/01/18 06:52:19;;;;;;;11.05;7.12;;;3.00;99.90;;;;;;459876;258;28017;-68
2022/01/18 06:54:20;;;;;;;9.85;6.93;;;3.00;99.90;;;;;;459879;258;29093;-68
2022/01/18 06:56:22;;;;;;;10.35;6.53;;;3.10;99.90;;;;;;459849;258;27973;-68
2022/01/18 06:58:23;;;;;;;13.32;8.25;;;3.00;99.90;;;;;;459878;258;27567;-68
2022/01/18 07:00:24;;;;;;;15.68;7.97;;;3.00;99.90;;;;;;459867;258;27503;-68
2022/01/18 07:02:25;;;;;;;15.07;8.40;;;3.00;99.90;;;;;;459855;258;27477;-68
2022/01/18 07:04:27;;;;;;;15.07;8.25;;;3.10;99.90;;;;;;459861;258;27626;-69
2022/01/18 07:06:28;;;;;;;19.65;9.70;;;3.10;99.90;;;;;;459856;258;27483;-68
2022/01/18 07:08:30;;;;;;;17.05;9.88;;;3.10;99.90;;;;;;459891;258;27634;-68
2022/01/18 07:10:31;;;;;;;14.50;9.00;;;3.10;99.90;;;;;;459891;258;27551;-69
2022/01/18 07:12:34;;;;;;;14.80;7.75;;;3.10;99.90;;;;;;459864;258;28586;-68
2022/01/18 07:14:33;;;;;;;13.93;8.52;;;3.20;99.90;;;;;;459850;258;28709;-68
2022/01/18 07:16:34;;;;;;;14.90;8.80;;;3.20;99.90;;;;;;459852;258;27993;-68
2022/01/18 07:18:35;;;;;;;13.80;8.35;;;3.20;99.90;;;;;;459903;258;27509;-68
2022/01/18 07:20:37;;;;;;;14.93;9.27;;;3.20;99.90;;;;;;459907;258;27578;-68
2022/01/18 07:22:42;;;;;;;14.77;8.20;;;3.20;99.90;;;;;;459899;258;27462;-68
2022/01/18 07:24:46;;;;;;;15.55;8.45;;;3.20;99.90;;;;;;459890;258;27487;-68
2022/01/18 07:26:46;;;;;;;14.98;8.82;;;3.20;99.90;;;;;;459889;258;27472;-68
2022/01/18 07:28:47;;;;;;;14.30;7.80;;;3.20;99.90;;;;;;459867;258;27596;-68
2022/01/18 07:30:49;;;;;;;12.82;7.70;;;3.10;99.90;;;;;;459906;258;27506;-68
2022/01/18 07:32:50;;;;;;;14.98;7.20;;;3.10;99.90;;;;;;459867;258;28050;-68
2022/01/18 07:34:53;;;;;;;12.80;7.57;;;3.10;99.90;;;;;;459882;258;28090;-68
2022/01/18 07:36:52;;;;;;;12.15;7.15;;;3.10;99.90;;;;;;459855;258;27927;-68
2022/01/18 07:38:55;;;;;;;13.30;7.57;;;3.10;99.90;;;;;;459873;258;27527;-68
2022/01/18 07:40:55;;;;;;;16.30;8.98;;;3.10;99.90;;;;;;459864;258;27505;-68
2022/01/18 07:42:57;;;;;;;16.10;8.88;;;3.20;99.90;;;;;;459864;258;27470;-68
2022/01/18 07:44:57;;;;;;;12.73;7.55;;;3.20;99.90;;;;;;459873;258;27491;-68
2022/01/18 07:46:59;;;;;;;11.70;6.82;;;3.20;99.90;;;;;;459882;258;27462;-68
2022/01/18 07:49:00;;;;;;;11.25;7.60;;;3.20;99.90;;;;;;459886;258;27499;-68
2022/01/18 07:51:01;;;;;;;12.30;7.53;;;3.30;99.90;;;;;;459879;258;27609;-68
2022/01/18 07:53:02;;;;;;;13.73;7.53;;;3.30;99.90;;;;;;459888;258;27916;-69
2022/01/18 07:55:04;;;;;;;11.60;7.35;;;3.30;99.90;;;;;;459883;258;28068;-68
2022/01/18 07:57:05;;;;;;;15.18;8.43;;;3.30;99.90;;;;;;459871;258;28067;-68
2022/01/18 07:59:06;;;;;;;11.18;7.62;;;3.20;99.90;;;;;;459885;258;27549;-68
2022/01/18 08:01:07;;;;;;;14.75;8.27;;;3.30;99.90;;;;;;459868;258;27502;-68
2022/01/18 08:03:09;;;;;;;15.63;8.30;;;3.30;99.90;;;;;;459859;258;27561;-68
2022/01/18 08:05:10;;;;;;;12.23;8.27;;;3.30;99.90;;;;;;459862;258;27499;-68
2022/01/18 08:07:11;;;;;;;15.55;8.43;;;3.30;99.90;;;;;;459886;258;27603;-68
2022/01/18 08:09:16;;;;;;;13.38;8.00;;;3.40;99.90;;;;;;459876;258;27479;-68
2022/01/18 08:11:14;;;;;;;11.43;7.07;;;3.40;99.90;;;;;;459876;258;27559;-68
2022/01/18 08:13:15;;;;;;;13.88;8.45;;;3.40;99.90;;;;;;459861;258;27932;-68
2022/01/18 08:15:20;;;;;;;10.93;7.03;;;3.40;99.90;;;;;;459881;258;27935;-68
2022/01/18 08:17:17;;;;;;;11.45;7.65;;;3.40;99.90;;;;;;459878;258;28007;-68
2022/01/18 08:19:19;;;;;;;9.60;6.93;;;3.40;99.90;;;;;;459864;258;27468;-68
2022/01/18 08:21:20;;;;;;;11.07;6.78;;;3.40;99.90;;;;;;459866;258;27518;-68
2022/01/18 08:23:21;;;;;;;9.15;6.03;;;3.40;99.90;;;;;;459849;258;27575;-68
2022/01/18 08:25:23;;;;;;;13.25;6.57;;;3.50;99.90;;;;;;459875;258;27459;-68
2022/01/18 08:27:24;;;;;;;9.65;6.82;;;3.50;99.90;;;;;;459862;258;27507;-68
2022/01/18 08:29:25;;;;;;;11.12;6.80;;;3.50;99.90;;;;;;459868;258;27567;-68
2022/01/18 08:31:26;;;;;;;10.32;6.62;;;3.60;99.90;;;;;;459857;258;27545;-68
2022/01/18 08:33:27;;;;;;;12.18;7.00;;;3.60;99.90;;;;;;459857;258;27463;-68
2022/01/18 08:35:29;;;;;;;12.57;6.00;;;3.60;99.90;;;;;;459888;258;27946;-68
2022/01/18 08:37:30;;;;;;;10.02;6.70;;;3.60;99.90;;;;;;459888;258;28126;-68
2022/01/18 08:39:31;;;;;;;10.77;6.60;;;3.60;99.90;;;;;;459877;258;27977;-68
2022/01/18 08:41:32;;;;;;;9.70;6.20;;;3.60;99.90;;;;;;459854;258;27499;-68
2022/01/18 08:43:36;;;;;;;10.48;6.18;;;3.50;99.90;;;;;;459883;258;27511;-68
2022/01/18 08:45:35;;;;;;;9.57;6.32;;;3.50;99.90;;;;;;459883;258;27505;-68
2022/01/18 08:47:36;;;;;;;9.35;6.45;;;3.50;99.90;;;;;;459872;258;27495;-68
2022/01/18 08:49:37;;;;;;;8.15;5.65;;;3.50;99.90;;;;;;459884;258;27478;-69
2022/01/18 08:51:39;;;;;;;7.40;5.97;;;3.50;99.90;;;;;;459854;258;27527;-68
2022/01/18 08:53:40;;;;;;;9.50;6.50;;;3.40;99.90;;;;;;459885;258;27546;-68
2022/01/18 08:55:41;;;;;;;8.93;5.78;;;3.40;99.90;;;;;;459880;258;27602;-68
2022/01/18 08:57:43;;;;;;;10.38;6.40;;;3.40;99.90;;;;;;459861;258;27535;-68
2022/01/18 08:59:44;;;;;;;9.27;6.65;;;3.40;99.90;;;;;;459874;258;28010;-68
2022/01/18 09:01:45;;;;;;;9.77;5.93;;;3.40;99.90;;;;;;459861;258;27942;-68
2022/01/18 09:03:46;;;;;;;8.93;5.45;;;3.40;99.90;;;;;;459877;258;27990;-68
2022/01/18 09:05:48;;;;;;;8.52;5.60;;;3.40;99.90;;;;;;459876;258;27562;-68
2022/01/18 09:07:49;;;;;;;11.20;6.90;;;3.50;99.90;;;;;;459893;258;27506;-68
2022/01/18 09:09:55;;;;;;;11.35;6.72;;;3.40;99.90;;;;;;459864;258;27466;-68
2022/01/18 09:11:51;;;;;;;9.43;6.55;;;3.50;99.90;;;;;;459858;258;27608;-69
2022/01/18 09:13:53;;;;;;;10.50;6.53;;;3.50;99.90;;;;;;459876;258;27511;-68
2022/01/18 09:15:54;;;;;;;8.43;6.07;;;3.60;99.90;;;;;;459871;258;27538;-68
2022/01/18 09:17:55;;;;;;;9.02;6.03;;;3.60;99.90;;;;;;459881;258;27499;-68
2022/01/18 09:19:56;;;;;;;9.80;6.60;;;3.60;99.90;;;;;;459846;258;27576;-68
2022/01/18 09:21:59;;;;;;;13.93;8.43;;;3.70;99.90;;;;;;459892;258;27466;-68
2022/01/18 09:23:59;;;;;;;14.43;9.30;;;3.60;99.90;;;;;;459870;258;28003;-68
2022/01/18 09:26:00;;;;;;;13.27;8.10;;;3.70;99.90;;;;;;459885;258;27984;-68
2022/01/18 09:28:01;;;;;;;15.98;9.50;;;3.80;99.90;;;;;;459898;258;28062;-68
2022/01/18 09:30:03;;;;;;;19.67;9.98;;;3.80;99.90;;;;;;459882;258;27526;-68
2022/01/18 09:32:04;;;;;;;20.65;11.50;;;3.80;99.90;;;;;;459907;258;27456;-68
2022/01/18 09:34:05;;;;;;;18.12;10.93;;;3.90;99.90;;;;;;459888;258;27498;-68
2022/01/18 09:36:06;;;;;;;21.92;11.75;;;3.90;99.90;;;;;;459870;258;27479;-68
2022/01/18 09:38:08;;;;;;;18.92;11.15;;;4.00;99.90;;;;;;459841;258;27583;-68
2022/01/18 09:40:09;;;;;;;20.85;10.30;;;4.10;99.90;;;;;;459881;258;27507;-68
2022/01/18 09:42:10;;;;;;;18.80;10.20;;;4.20;99.90;;;;;;459801;258;27947;-69
2022/01/18 09:44:11;;;;;;;20.75;11.20;;;4.20;99.90;;;;;;459841;258;28113;-68
2022/01/18 09:46:14;;;;;;;15.45;8.77;;;4.30;99.90;;;;;;459849;258;27454;-68
2022/01/18 09:48:14;;;;;;;14.80;9.23;;;4.30;99.90;;;;;;459871;258;27460;-69
2022/01/18 09:50:15;;;;;;;18.98;9.38;;;4.30;99.90;;;;;;459884;258;27498;-68
2022/01/18 09:52:16;;;;;;;14.93;8.70;;;4.40;99.90;;;;;;459859;258;27542;-68
2022/01/18 09:54:18;;;;;;;16.50;8.30;;;4.40;99.90;;;;;;459863;258;27582;-69
2022/01/18 09:56:19;;;;;;;16.85;9.18;;;4.50;99.90;;;;;;459823;258;27535;-69
2022/01/18 09:58:20;;;;;;;13.57;8.60;;;4.60;99.90;;;;;;459890;258;27924;-68
2022/01/18 10:00:21;;;;;;;16.25;8.70;;;4.60;99.90;;;;;;459867;258;27985;-68
2022/01/18 10:02:23;;;;;;;16.00;8.73;;;4.60;99.90;;;;;;459842;258;29047;-69
2022/01/18 10:04:26;;;;;;;17.65;9.30;;;4.70;99.90;;;;;;459835;258;27514;-69
2022/01/18 10:06:25;;;;;;;14.13;9.00;;;4.70;99.90;;;;;;459829;258;27503;-69
2022/01/18 10:08:26;;;;;;;18.85;10.07;;;4.70;99.90;;;;;;459832;254;27470;-68
2022/01/18 10:10:28;;;;;;;23.20;9.98;;;4.70;99.90;;;;;;459792;258;27612;-68
2022/01/18 10:12:29;;;;;;;21.67;9.85;;;4.70;99.90;;;;;;459804;258;27558;-70
2022/01/18 10:14:30;;;;;;;19.50;9.27;;;4.80;99.90;;;;;;459825;258;28050;-68
2022/01/18 10:16:31;;;;;;;26.77;10.10;;;4.80;99.90;;;;;;459880;258;28010;-68
2022/01/18 10:18:38;;;;;;;21.17;10.18;;;4.80;99.90;;;;;;459855;258;27464;-68
2022/01/18 10:20:34;;;;;;;20.62;10.70;;;4.90;99.90;;;;;;459618;258;27602;-70
2022/01/18 10:22:41;;;;;;;23.12;9.57;;;4.80;99.90;;;;;;459823;258;27468;-68
2022/01/18 10:24:36;;;;;;;21.95;9.60;;;4.80;99.90;;;;;;459810;258;27480;-68
2022/01/18 10:26:38;;;;;;;22.73;9.95;;;4.90;99.90;;;;;;459888;258;27593;-68
2022/01/18 10:28:39;;;;;;;18.17;9.68;;;4.90;99.90;;;;;;459860;258;27494;-71
2022/01/18 10:30:45;;;;;;;25.37;10.40;;;4.90;99.90;;;;;;459859;258;28078;-70
2022/01/18 10:32:43;;;;;;;18.60;9.43;;;4.90;99.90;;;;;;459852;258;27510;-68
2022/01/18 10:35:04;;;;;;;27.02;9.75;;;5.00;99.90;;;;;;459874;258;27555;-70
2022/01/18 10:36:44;;;;;;;21.08;9.25;;;5.00;99.90;;;;;;458395;258;27537;-71
2022/01/18 10:38:45;;;;;;;22.23;8.82;;;5.00;99.90;;;;;;459865;258;27460;-70
2022/01/18 10:40:47;;;;;;;21.83;9.05;;;5.10;99.90;;;;;;459836;258;27519;-70
2022/01/18 10:42:49;;;;;;;19.70;8.75;;;5.10;99.90;;;;;;459858;258;27953;-70
2022/01/18 10:44:49;;;;;;;24.75;8.80;;;5.00;99.90;;;;;;459869;258;27924;-68
2022/01/18 10:46:50;;;;;;;20.25;8.35;;;5.10;99.90;;;;;;459873;258;27988;-70
2022/01/18 10:48:52;;;;;;;22.80;8.70;;;5.10;99.90;;;;;;459849;258;27506;-70
2022/01/18 10:50:53;;;;;;;18.23;8.30;;;5.10;99.90;;;;;;459851;258;27500;-68
2022/01/18 10:52:54;;;;;;;13.75;6.85;;;5.10;99.90;;;;;;459883;258;27653;-71
2022/01/18 10:54:56;;;;;;;17.92;7.53;;;5.10;99.90;;;;;;459868;258;27470;-71
2022/01/18 10:56:57;;;;;;;16.17;7.47;;;5.00;99.90;;;;;;459857;258;27494;-68
2022/01/18 10:58:58;;;;;;;15.55;7.32;;;5.10;99.90;;;;;;459854;258;28007;-70
2022/01/18 11:00:59;;;;;;;14.65;6.53;;;5.20;99.90;;;;;;459868;258;28050;-68
2022/01/18 11:03:00;;;;;;;10.90;6.50;;;5.20;99.90;;;;;;460351;258;27491;-68
2022/01/18 11:05:02;;;;;;;13.30;6.70;;;5.20;99.90;;;;;;459861;258;27507;-70
2022/01/18 11:07:04;;;;;;;12.10;6.40;;;5.20;99.90;;;;;;459849;258;27530;-68
2022/01/18 11:09:04;;;;;;;9.48;4.90;;;5.30;99.90;;;;;;460303;258;27467;-68
2022/01/18 11:11:05;;;;;;;8.07;4.68;;;5.30;99.90;;;;;;459890;258;27466;-68
2022/01/18 11:13:45;;;;;;;7.10;3.95;;;5.30;99.90;;;;;;459863;258;28043;-68
2022/01/18 11:15:18;;;;;;;8.00;4.30;;;5.30;99.90;;;;;;457973;258;27919;-68
2022/01/18 11:17:26;;;;;;;5.53;4.28;;;5.30;99.90;;;;;;459866;258;27975;-68
2022/01/18 11:21:23;;;;;;;7.25;3.42;;;5.40;99.90;;;;;;459877;258;27490;-68
2022/01/18 11:23:21;;;;;;;8.60;3.92;;;5.30;99.90;;;;;;459833;258;27582;-70
2022/01/18 11:25:23;;;;;;;3.03;2.80;;;5.30;99.90;;;;;;459887;258;28053;-68
2022/01/18 11:27:24;;;;;;;2.62;2.40;;;5.30;99.90;;;;;;459876;258;28030;-68
2022/01/18 11:29:26;;;;;;;2.72;2.45;;;5.40;99.90;;;;;;459864;258;28066;-68
2022/01/18 11:31:26;;;;;;;2.58;2.25;;;5.40;99.90;;;;;;459861;258;27467;-68
2022/01/18 11:33:28;;;;;;;5.75;2.70;;;5.50;99.90;;;;;;459881;258;27478;-68
2022/01/18 11:35:29;;;;;;;3.17;2.50;;;5.50;99.90;;;;;;459882;258;27595;-68